Stornoway, United Kingdom

1:50 PM GMT on March 04, 2015 (GMT +0000)
Stornoway | Change Station
CLOSE
Current Station
Airport
Location: Stornoway,
Elevation: 43 ft
Nearby Weather Stations

Elev 43 ft 58.22 °N, 6.33 °W | Updated 30 minutes ago

Partly Cloudy
Partly Cloudy
46 °F
Feels Like 40 °F
N
14
Wind Variable Wind from WSW

Today
High -- | Low -- °F
--% Chance of Precip.
Yesterday
High -- | Low -- °F
Precip. -- in
7:13 AM 6:02 PM
Waxing Gibbous, 99% visible
Pressure 30.27 in
Visibility 6.2 miles
Clouds Few 1200 ft
Windchill 40 °F
Dew Point 39 °F
Humidity 76%
Rainfall 0.00 in
Snow Depth Not available.
UV 2 out of 12
Pollen Not available.
Air Quality Not available.
Flu Activity Not available.
METAR EGPO 041320Z 25012KT 9999 VCSH FEW012 08/04 Q1025

More Conditions Fewer Conditions

Pressure 30.27 in
Visibility 6.2 miles
Clouds Few 1200 ft
Windchill 40 °F
Dew Point 39 °F
Humidity 76%
Rainfall 0.00 in
Snow Depth Not available.
UV 2 out of 12
Pollen Not available.
Air Quality Not available.
Flu Activity Not available.
METAR EGPO 041320Z 25012KT 9999 VCSH FEW012 08/04 Q1025

More Conditions Fewer Conditions

10-Day Weather Forecast

Almanac

Astronomy

Mar. 04, 2015 Rise Set
Actual Time
Civil Twilight
Nautical Twilight
Astronomical Twilight
Moon
Length of Visible Light
Length of Day
Tomorrow will be .
, % of the Moon is Illuminated

Today's Extremes

Country Highs Country Lows

Community

WunderPhotos

Upload Photos

1,802,453 photos uploaded!

WunderBlogs® & News

Nearby

Air Quality

  Air Quality AQ Index Pollutant
Not available.

Snow Depth

Station Depth Elevation

Earthquake Activity

City Distance Mag. Time & Date
Minimum magnitude displayed is 2.5.

Coastal Water Temperatures

Place Temperature

Nearby Weather Stations